Milton, TN (37118)

6:47 PM CDT on October 21, 2019 (GMT -0500)
Lascassas - Bradley Creek Road | | Change Station

Elev 695 ft 35.95 °N, 86.22 °W | Updated 2 minutes ago

Mostly Cloudy
Mostly Cloudy
60.8 °F
Feels Like 60.8 °F
N
0
Wind Variable Wind from SSW
Gusts 2.0 mph

Today
High -- | Low -- °F
--% Chance of Precip.
Yesterday
High -- | Low -- °F
Precip. -- in
Pressure 29.84 in
Visibility 9.0 miles
Clouds Mostly Cloudy 1400 ft
Overcast 2100 ft
Dew Point 60 °F
Humidity 96%
Rainfall 0.56 in
Snow Depth Not available.
6:56 AM 6:01 PM
Last Quarter, 45% visible
SPECI KMQY 212331Z 20003KT 9SM RA BKN014 OVC021 17/16 A2984 RMK AO2 P0000
Pressure 29.84 in
Visibility 9.0 miles
Clouds Mostly Cloudy 1400 ft
Overcast 2100 ft
Dew Point 60 °F
Humidity 96%
Rainfall 0.56 in
Snow Depth Not available.
6:56 AM 6:01 PM
Last Quarter, 45% visible
SPECI KMQY 212331Z 20003KT 9SM RA BKN014 OVC021 17/16 A2984 RMK AO2 P0000

Get Severe Weather Alerts

Thanks for signing up!

Be on the lookout for a verification email in your inbox.

You'll start receiving the daily forecast at 6 AM.

×

10-Day Weather Forecast

Almanac

Astronomy

Oct. 21, 2019 Rise Set
Actual Time
Civil Twilight
Nautical Twilight
Astronomical Twilight
Moon
Length of Visible Light
Length of Day
Tomorrow will be .
, % of the Moon is Illuminated

Today's Extremes

State Highs State Lows

Community

WunderPhotos

Category 6

Welcome to Category 6. This is the collective home for Weather Underground's featured writeups by Dr. Jeff Masters (right), Bob Henson (left), Chris Burt, and other regular contributors.

Nearby

Air Quality

  Air Quality AQ Index Pollutant
Not available.

Snow Depth

Station Depth Elevation

Earthquake Activity

City Distance Mag. Time & Date
Minimum magnitude displayed is 2.5.

Coastal Water Temperatures

Place Temperature

Stations

Nearby Weather Stations

Station Location Temp. Windchill Dew Point Humidity Wind Precip. Elev Updated Type
                   

Watches & Warnings

There are currently no watches in effect.